createdAt,value
2019-01-13T00:03:50.167Z,8.60
2019-01-13T00:06:38.416Z,8.60
2019-01-13T00:09:19.029Z,8.60
2019-01-13T00:11:59.593Z,8.60
2019-01-13T00:14:28.690Z,8.60
2019-01-13T00:17:16.716Z,8.50
2019-01-13T00:19:45.716Z,8.50
2019-01-13T00:22:33.904Z,8.50
2019-01-13T00:25:15.437Z,8.50
2019-01-13T00:27:56.370Z,8.50
2019-01-13T00:30:37.044Z,8.50
2019-01-13T00:33:06.008Z,8.50
2019-01-13T00:35:54.343Z,8.50
2019-01-13T00:38:34.916Z,8.50
2019-01-13T00:41:16.317Z,8.50
2019-01-13T00:43:57.520Z,8.50
2019-01-13T00:46:38.428Z,8.50
2019-01-13T00:49:18.763Z,8.50
2019-01-13T00:51:47.805Z,8.50
2019-01-13T00:54:36.043Z,8.50
2019-01-13T00:57:24.132Z,8.50
2019-01-13T01:00:04.997Z,8.50
2019-01-13T01:02:45.807Z,8.50
2019-01-13T01:05:26.826Z,8.50
2019-01-13T01:07:55.933Z,8.50
2019-01-13T01:10:25.033Z,8.50
2019-01-13T01:13:06.108Z,8.50
2019-01-13T01:15:47.139Z,8.50
2019-01-13T01:18:28.196Z,8.60
2019-01-13T01:21:09.161Z,8.60
2019-01-13T01:23:38.280Z,8.60
2019-01-13T01:26:26.404Z,8.60
2019-01-13T01:29:05.722Z,8.60
2019-01-13T01:31:53.727Z,8.60
2019-01-13T01:34:34.524Z,8.60
2019-01-13T01:37:14.935Z,8.60
2019-01-13T01:39:55.624Z,8.60
2019-01-13T01:42:36.197Z,8.60
2019-01-13T01:45:07.906Z,8.60
2019-01-13T01:47:55.992Z,8.60
2019-01-13T01:50:44.077Z,8.70
2019-01-13T01:53:24.440Z,8.70
2019-01-13T01:56:05.273Z,8.70
2019-01-13T01:58:46.596Z,8.70
2019-01-13T02:01:27.620Z,8.70
2019-01-13T02:04:08.164Z,8.70
2019-01-13T02:06:48.999Z,8.70
2019-01-13T02:09:28.069Z,8.70
2019-01-13T02:12:09.406Z,8.70
2019-01-13T02:14:50.455Z,8.70
2019-01-13T02:17:31.137Z,8.70
2019-01-13T02:20:11.748Z,8.70
2019-01-13T02:22:52.521Z,8.80
2019-01-13T02:25:32.850Z,8.80
2019-01-13T02:28:14.215Z,8.80
2019-01-13T02:30:49.024Z,8.80
2019-01-13T02:33:33.367Z,8.80
2019-01-13T02:36:21.394Z,8.80
2019-01-13T02:39:02.388Z,8.80
2019-01-13T02:41:43.559Z,8.80
2019-01-13T02:44:24.712Z,8.90
2019-01-13T02:47:05.039Z,8.80
2019-01-13T02:49:46.116Z,8.80
2019-01-13T02:52:27.168Z,8.90
2019-01-13T02:55:07.836Z,8.90
2019-01-13T02:57:47.128Z,8.90
2019-01-13T03:00:28.372Z,8.90
2019-01-13T03:02:57.371Z,8.90
2019-01-13T03:05:26.290Z,8.90
2019-01-13T03:08:14.876Z,8.90
2019-01-13T03:10:55.996Z,8.90
2019-01-13T03:13:36.763Z,8.90
2019-01-13T03:16:18.049Z,8.90
2019-01-13T03:18:59.596Z,8.90
2019-01-13T03:21:40.491Z,8.90
2019-01-13T03:24:09.490Z,8.90
2019-01-13T03:26:57.594Z,8.90
2019-01-13T03:29:45.844Z,8.90
2019-01-13T03:32:26.457Z,8.90
2019-01-13T03:35:07.487Z,9.00
2019-01-13T03:37:48.500Z,8.90
2019-01-13T03:40:29.697Z,9.00
2019-01-13T03:43:10.096Z,9.00
2019-01-13T03:45:50.745Z,9.00
2019-01-13T03:48:31.050Z,9.00
2019-01-13T03:51:12.668Z,9.00
2019-01-13T03:53:53.245Z,9.00
2019-01-13T03:56:33.671Z,9.00
2019-01-13T03:59:14.296Z,9.00
2019-01-13T04:01:54.965Z,9.00
2019-01-13T04:04:36.119Z,9.00
2019-01-13T04:07:17.205Z,9.00
2019-01-13T04:09:58.001Z,9.00
2019-01-13T04:12:38.842Z,9.00
2019-01-13T04:15:15.442Z,9.00
2019-01-13T04:17:56.425Z,9.10
2019-01-13T04:20:36.965Z,9.10
2019-01-13T04:26:31.137Z,9.10
2019-01-13T04:29:11.626Z,9.10
2019-01-13T04:31:52.286Z,9.10
2019-01-13T04:34:32.695Z,9.10
2019-01-13T04:37:13.231Z,9.10
2019-01-13T04:46:03.771Z,9.30
2019-01-13T04:51:31.887Z,9.20
2019-01-13T04:54:11.001Z,9.20
2019-01-13T04:56:39.969Z,9.20
2019-01-13T04:59:27.974Z,9.30
2019-01-13T05:02:08.944Z,9.20
2019-01-13T05:04:49.996Z,9.30
2019-01-13T05:07:31.235Z,9.30
2019-01-13T05:10:11.864Z,9.30
2019-01-13T05:12:53.134Z,9.30
2019-01-13T05:15:33.596Z,9.30
2019-01-13T05:18:14.978Z,9.40
2019-01-13T05:20:55.415Z,9.40
2019-01-13T05:23:36.250Z,9.40
2019-01-13T05:26:16.603Z,9.40
2019-01-13T05:28:57.541Z,9.40
2019-01-13T05:31:41.946Z,9.50
2019-01-13T05:34:20.714Z,9.50
2019-01-13T05:37:01.939Z,9.50
2019-01-13T05:39:42.778Z,9.50
2019-01-13T05:42:11.929Z,9.50
2019-01-13T05:45:00.207Z,9.50
2019-01-13T05:47:48.197Z,9.60
2019-01-13T05:50:27.429Z,9.60
2019-01-13T05:53:08.191Z,9.60
2019-01-13T05:55:48.875Z,9.60
2019-01-13T05:58:29.339Z,9.70
2019-01-13T06:01:09.978Z,9.70
2019-01-13T06:03:50.462Z,9.70
2019-01-13T06:06:19.472Z,9.70
2019-01-13T06:09:07.857Z,9.80
2019-01-13T06:11:55.945Z,9.80
2019-01-13T06:14:36.945Z,9.70
2019-01-13T06:17:18.256Z,9.70
2019-01-13T06:19:58.853Z,9.70
2019-01-13T06:22:39.526Z,9.80
2019-01-13T06:25:18.632Z,9.70
2019-01-13T06:28:06.821Z,9.80
2019-01-13T06:30:47.284Z,9.80
2019-01-13T06:33:27.877Z,9.80
2019-01-13T06:36:08.412Z,9.80
2019-01-13T06:38:49.340Z,9.80
2019-01-13T06:41:18.167Z,9.80
2019-01-13T06:44:06.480Z,9.80
2019-01-13T06:46:47.580Z,9.80
2019-01-13T06:49:16.577Z,9.80
2019-01-13T06:52:04.633Z,9.80
2019-01-13T06:54:53.038Z,9.80
2019-01-13T06:57:33.563Z,9.80
2019-01-13T07:00:02.876Z,9.80
2019-01-13T07:02:44.013Z,9.80
2019-01-13T07:05:24.817Z,9.80
2019-01-13T07:08:06.066Z,9.80
2019-01-13T07:10:46.628Z,9.80
2019-01-13T07:13:27.713Z,9.80
2019-01-13T07:16:08.528Z,9.90
2019-01-13T07:21:35.736Z,9.90
2019-01-13T07:24:23.749Z,9.90
2019-01-13T07:27:04.429Z,9.90
2019-01-13T07:29:45.656Z,9.80
2019-01-13T07:32:26.198Z,9.90
2019-01-13T07:35:06.720Z,9.90
2019-01-13T07:40:33.815Z,9.90
2019-01-13T07:43:21.820Z,9.90
2019-01-13T07:46:10.285Z,9.90
2019-01-13T07:48:51.531Z,9.80
2019-01-13T07:51:32.109Z,9.80
2019-01-13T07:54:11.168Z,9.80
2019-01-13T07:56:40.261Z,9.80
2019-01-13T07:59:28.268Z,9.90
2019-01-13T08:02:09.199Z,9.80
2019-01-13T08:04:50.104Z,9.90
2019-01-13T08:07:30.835Z,9.90
2019-01-13T08:09:59.680Z,9.90
2019-01-13T08:12:47.959Z,9.90
2019-01-13T08:15:18.436Z,9.90
2019-01-13T08:18:06.947Z,9.90
2019-01-13T08:20:47.698Z,9.90
2019-01-13T08:23:28.373Z,9.90
2019-01-13T08:26:09.221Z,9.90
2019-01-13T08:32:01.276Z,9.90
2019-01-13T08:34:49.521Z,9.90
2019-01-13T08:37:18.565Z,9.90
2019-01-13T08:40:07.576Z,9.90
2019-01-13T08:42:48.812Z,10.00
2019-01-13T08:45:29.515Z,10.00
2019-01-13T08:48:10.602Z,9.90
2019-01-13T08:50:50.965Z,9.90
2019-01-13T08:53:31.680Z,9.90
2019-01-13T08:56:12.036Z,9.90
2019-01-13T08:58:41.025Z,10.00
2019-01-13T09:01:29.055Z,10.00
2019-01-13T09:04:10.462Z,9.90
2019-01-13T09:06:50.920Z,10.00
2019-01-13T09:09:32.135Z,10.00
2019-01-13T09:12:12.562Z,10.00
2019-01-13T09:14:53.118Z,10.00
2019-01-13T09:17:33.986Z,10.00
2019-01-13T09:20:15.089Z,10.00
2019-01-13T09:22:44.298Z,10.00
2019-01-13T09:25:51.903Z,10.00
2019-01-13T09:28:39.897Z,10.00
2019-01-13T09:31:08.938Z,9.90
2019-01-13T09:33:56.970Z,9.90
2019-01-13T09:36:38.624Z,9.90
2019-01-13T09:39:19.925Z,9.90
2019-01-13T09:42:00.980Z,9.90
2019-01-13T09:44:42.069Z,9.80
2019-01-13T09:47:22.834Z,9.80
2019-01-13T09:50:03.262Z,9.80
2019-01-13T09:52:44.467Z,9.90
2019-01-13T09:55:25.188Z,9.90
2019-01-13T09:58:05.936Z,9.80
2019-01-13T10:00:46.699Z,9.80
2019-01-13T10:03:15.870Z,9.80
2019-01-13T10:06:03.952Z,9.80
2019-01-13T10:08:45.268Z,9.90
2019-01-13T10:11:14.237Z,9.90
2019-01-13T10:14:02.480Z,9.90
2019-01-13T10:16:50.509Z,9.90
2019-01-13T10:19:31.525Z,9.90
2019-01-13T10:22:12.179Z,9.90
2019-01-13T10:24:53.365Z,9.90
2019-01-13T10:27:33.721Z,9.80
2019-01-13T10:30:14.771Z,9.90
2019-01-13T10:32:43.754Z,9.80
2019-01-13T10:35:33.617Z,9.80
2019-01-13T10:38:21.917Z,9.80
2019-01-13T10:41:02.877Z,9.90
2019-01-13T10:43:43.914Z,9.90
2019-01-13T10:46:24.806Z,9.80
2019-01-13T10:49:05.372Z,9.80
2019-01-13T10:51:46.524Z,9.90
2019-01-13T10:54:27.421Z,9.90
2019-01-13T10:57:08.434Z,9.90
2019-01-13T10:59:37.315Z,9.90
2019-01-13T11:02:25.571Z,10.00
2019-01-13T11:05:06.073Z,10.00
2019-01-13T11:07:47.269Z,10.00
2019-01-13T11:10:28.033Z,10.00
2019-01-13T11:13:08.661Z,10.00
2019-01-13T11:15:37.519Z,10.00
2019-01-13T11:18:25.836Z,10.00
2019-01-13T11:21:13.973Z,10.00
2019-01-13T11:23:55.237Z,10.00
2019-01-13T11:26:35.763Z,10.00
2019-01-13T11:29:16.755Z,10.10
2019-01-13T11:31:57.367Z,10.10
2019-01-13T11:34:38.702Z,10.10
2019-01-13T11:37:07.564Z,10.10
2019-01-13T11:42:36.671Z,10.10
2019-01-13T11:45:17.500Z,10.10
2019-01-13T11:47:58.571Z,10.10
2019-01-13T11:50:40.320Z,10.10
2019-01-13T11:53:19.656Z,10.10
2019-01-13T11:56:07.834Z,10.20
2019-01-13T11:58:49.038Z,10.20
2019-01-13T12:01:30.212Z,10.20
2019-01-13T12:03:59.133Z,10.20
2019-01-13T12:06:28.031Z,10.20
2019-01-13T12:08:57.342Z,10.20
2019-01-13T12:11:45.839Z,10.20
2019-01-13T12:14:27.168Z,10.20
2019-01-13T12:17:07.565Z,10.20
2019-01-13T12:19:48.488Z,10.20
2019-01-13T12:22:29.070Z,10.20
2019-01-13T12:25:10.238Z,10.30
2019-01-13T12:27:39.591Z,10.20
2019-01-13T12:33:42.577Z,10.30
2019-01-13T12:36:11.642Z,10.30
2019-01-13T12:38:59.762Z,10.30
2019-01-13T12:41:40.861Z,10.30
2019-01-13T12:44:22.049Z,10.30
2019-01-13T12:47:02.569Z,10.30
2019-01-13T12:49:43.617Z,10.30
2019-01-13T12:52:12.422Z,10.30
2019-01-13T12:54:53.865Z,10.30
2019-01-13T12:57:34.809Z,10.30
2019-01-13T13:00:15.910Z,10.30
2019-01-13T13:02:57.665Z,10.30
2019-01-13T13:05:38.802Z,10.20
2019-01-13T13:11:18.725Z,10.20
2019-01-13T13:13:59.344Z,10.20
2019-01-13T13:16:40.093Z,10.20
2019-01-13T13:19:21.381Z,10.20
2019-01-13T13:22:01.985Z,10.10
2019-01-13T13:24:42.401Z,10.10
2019-01-13T13:27:11.688Z,10.10
2019-01-13T13:29:40.616Z,10.10
2019-01-13T13:32:28.850Z,10.10
2019-01-13T13:35:16.868Z,10.10
2019-01-13T13:37:57.372Z,10.10
2019-01-13T13:40:37.817Z,10.10
2019-01-13T13:43:06.877Z,10.20
2019-01-13T13:45:54.941Z,10.20
2019-01-13T13:48:36.454Z,10.20
2019-01-13T13:51:05.407Z,10.20
2019-01-13T13:53:34.245Z,10.20
2019-01-13T13:56:15.768Z,10.20
2019-01-13T13:58:57.033Z,10.30
2019-01-13T14:01:26.260Z,10.30
2019-01-13T14:04:14.337Z,10.30
2019-01-13T14:07:02.772Z,10.30
2019-01-13T14:09:34.045Z,10.30
2019-01-13T14:12:22.396Z,10.30
2019-01-13T14:15:03.256Z,10.30
2019-01-13T14:17:46.694Z,10.30
2019-01-13T14:20:27.295Z,10.30
2019-01-13T14:23:09.250Z,10.30
2019-01-13T14:25:50.267Z,10.30
2019-01-13T14:28:31.223Z,10.30
2019-01-13T14:31:12.111Z,10.30
2019-01-13T14:33:53.220Z,10.30
2019-01-13T14:36:34.430Z,10.30
2019-01-13T14:39:15.399Z,10.30
2019-01-13T14:41:56.462Z,10.30
2019-01-13T14:44:37.292Z,10.30
2019-01-13T14:47:17.924Z,10.40
2019-01-13T14:49:59.104Z,10.40
2019-01-13T14:52:40.493Z,10.40
2019-01-13T14:55:20.994Z,10.40
2019-01-13T14:58:04.394Z,10.40
2019-01-13T15:00:33.571Z,10.40
2019-01-13T15:03:21.584Z,10.40
2019-01-13T15:06:09.935Z,10.40
2019-01-13T15:08:51.135Z,10.40
2019-01-13T15:11:31.710Z,10.40
2019-01-13T15:14:12.200Z,10.40
2019-01-13T15:16:52.906Z,10.40
2019-01-13T15:19:33.390Z,10.40
2019-01-13T15:22:02.573Z,10.40
2019-01-13T15:24:50.593Z,10.40
2019-01-13T15:27:38.971Z,10.40
2019-01-13T15:30:20.185Z,10.40
2019-01-13T15:33:00.804Z,10.30
2019-01-13T15:35:41.174Z,10.30
2019-01-13T15:38:21.656Z,10.30
2019-01-13T15:41:02.453Z,10.30
2019-01-13T15:43:43.164Z,10.30
2019-01-13T15:46:23.516Z,10.30
2019-01-13T15:49:04.765Z,10.30
2019-01-13T15:51:45.305Z,10.30
2019-01-13T15:54:26.326Z,10.30
2019-01-13T15:57:07.410Z,10.30
2019-01-13T15:59:47.958Z,10.20
2019-01-13T16:02:28.572Z,10.20
2019-01-13T16:04:57.558Z,10.20
2019-01-13T16:07:45.665Z,10.20
2019-01-13T16:10:33.982Z,10.20
2019-01-13T16:13:14.808Z,10.20
2019-01-13T16:15:59.679Z,10.20
2019-01-13T16:18:40.207Z,10.20
2019-01-13T16:21:20.980Z,10.20
2019-01-13T16:24:01.546Z,10.10
2019-01-13T16:26:30.992Z,10.10
2019-01-13T16:29:00.360Z,10.10
2019-01-13T16:31:48.697Z,10.10
2019-01-13T16:34:36.809Z,10.10
2019-01-13T16:37:17.979Z,10.10
2019-01-13T16:39:58.475Z,10.10
2019-01-13T16:42:38.934Z,10.10
2019-01-13T16:45:09.240Z,10.10
2019-01-13T16:47:57.364Z,10.10
2019-01-13T16:50:37.907Z,10.20
2019-01-13T16:53:18.778Z,10.20
2019-01-13T16:55:59.124Z,10.20
2019-01-13T16:58:40.089Z,10.10
2019-01-13T17:01:20.536Z,10.10
2019-01-13T17:04:01.569Z,10.00
2019-01-13T17:06:41.901Z,10.10
2019-01-13T17:09:23.357Z,10.10
2019-01-13T17:12:03.634Z,10.20
2019-01-13T17:14:44.809Z,10.20
2019-01-13T17:17:25.298Z,10.20
2019-01-13T17:20:06.141Z,10.20
2019-01-13T17:22:46.457Z,10.20
2019-01-13T17:25:27.637Z,10.20
2019-01-13T17:28:08.716Z,10.20
2019-01-13T17:30:49.843Z,10.10
2019-01-13T17:33:18.820Z,10.00
2019-01-13T17:35:47.759Z,10.00
2019-01-13T17:38:36.132Z,10.00
2019-01-13T17:41:05.089Z,10.00
2019-01-13T17:43:53.364Z,10.00
2019-01-13T17:46:34.139Z,10.00
2019-01-13T17:49:13.442Z,10.00
2019-01-13T17:52:01.524Z,10.00
2019-01-13T17:54:42.486Z,9.90
2019-01-13T17:57:23.321Z,9.90
2019-01-13T18:02:53.802Z,9.30
2019-01-13T18:05:22.603Z,9.10
2019-01-13T18:08:10.804Z,8.90
2019-01-13T18:10:39.691Z,8.90
2019-01-13T18:13:27.761Z,9.00
2019-01-13T18:16:08.855Z,9.00
2019-01-13T18:18:50.131Z,8.90
2019-01-13T18:21:32.600Z,8.90
2019-01-13T18:24:13.764Z,8.90
2019-01-13T18:26:54.528Z,8.80
2019-01-13T18:29:35.416Z,8.80
2019-01-13T18:32:15.841Z,8.80
2019-01-13T18:34:57.195Z,8.70
2019-01-13T18:37:38.257Z,8.70
2019-01-13T18:40:19.054Z,8.60
2019-01-13T18:42:59.800Z,8.60
2019-01-13T18:45:41.041Z,8.60
2019-01-13T18:48:21.735Z,8.60
2019-01-13T18:50:51.312Z,8.70
2019-01-13T18:53:39.482Z,8.70
2019-01-13T18:56:27.604Z,8.70
2019-01-13T18:59:08.418Z,8.60
2019-01-13T19:01:49.227Z,8.70
2019-01-13T19:04:18.025Z,8.70
2019-01-13T19:06:46.821Z,8.60
2019-01-13T19:09:35.015Z,8.60
2019-01-13T19:12:14.176Z,8.70
2019-01-13T19:15:02.904Z,8.70
2019-01-13T19:17:44.042Z,8.70
2019-01-13T19:20:24.877Z,8.70
2019-01-13T19:23:06.626Z,8.70
2019-01-13T19:25:48.525Z,8.60
2019-01-13T19:28:29.368Z,8.60
2019-01-13T19:31:10.032Z,8.80
2019-01-13T19:33:38.858Z,8.80
2019-01-13T19:36:27.064Z,8.80
2019-01-13T19:39:08.025Z,8.80
2019-01-13T19:41:49.193Z,8.70
2019-01-13T19:44:30.349Z,8.70
2019-01-13T19:47:10.982Z,8.80
2019-01-13T19:49:39.852Z,8.70
2019-01-13T19:52:28.252Z,8.60
2019-01-13T19:54:57.143Z,8.70
2019-01-13T19:57:45.403Z,8.60
2019-01-13T20:00:34.533Z,8.60
2019-01-13T20:03:22.667Z,8.50
2019-01-13T20:06:10.745Z,8.50
2019-01-13T20:08:51.625Z,8.50
2019-01-13T20:11:32.062Z,8.40
2019-01-13T20:14:13.247Z,8.40
2019-01-13T20:16:54.081Z,8.30
2019-01-13T20:19:35.136Z,8.40
2019-01-13T20:22:04.223Z,8.40
2019-01-13T20:24:52.333Z,8.30
2019-01-13T20:27:40.763Z,8.40
2019-01-13T20:30:22.949Z,8.40
2019-01-13T20:33:03.491Z,8.40
2019-01-13T20:35:44.261Z,8.50
2019-01-13T20:38:24.715Z,8.50
2019-01-13T20:41:05.803Z,8.50
2019-01-13T20:43:46.335Z,8.60
2019-01-13T20:46:26.912Z,8.70
2019-01-13T20:48:55.722Z,8.60
2019-01-13T20:51:43.866Z,8.60
2019-01-13T20:54:24.692Z,8.70
2019-01-13T20:57:05.508Z,8.70
2019-01-13T20:59:45.906Z,8.70
2019-01-13T21:02:26.840Z,8.80
2019-01-13T21:05:07.362Z,8.80
2019-01-13T21:07:47.904Z,8.70
2019-01-13T21:10:17.395Z,8.70
2019-01-13T21:13:05.684Z,8.70
2019-01-13T21:15:54.548Z,8.60
2019-01-13T21:18:35.649Z,8.70
2019-01-13T21:21:18.338Z,8.70
2019-01-13T21:23:59.587Z,8.80
2019-01-13T21:26:40.209Z,8.80
2019-01-13T21:29:21.149Z,8.70
2019-01-13T21:32:02.308Z,8.60
2019-01-13T21:34:43.321Z,8.60
2019-01-13T21:37:12.123Z,8.60
2019-01-13T21:40:00.228Z,8.70
2019-01-13T21:42:48.542Z,8.60
2019-01-13T21:45:29.091Z,8.60
2019-01-13T21:48:09.385Z,8.70
2019-01-13T21:50:50.550Z,8.60
2019-01-13T21:56:43.988Z,8.50
2019-01-13T21:59:24.329Z,8.50
2019-01-13T22:02:05.222Z,8.40
2019-01-13T22:04:46.008Z,8.40
2019-01-13T22:07:26.877Z,8.30
2019-01-13T22:09:55.813Z,8.30
2019-01-13T22:12:44.101Z,8.30
2019-01-13T22:15:32.091Z,8.30
2019-01-13T22:18:12.818Z,8.30
2019-01-13T22:20:54.018Z,8.40
2019-01-13T22:23:34.885Z,8.40
2019-01-13T22:26:03.855Z,8.50
2019-01-13T22:28:52.042Z,8.50
2019-01-13T22:31:40.041Z,8.50
2019-01-13T22:34:21.282Z,8.50
2019-01-13T22:37:01.694Z,8.50
2019-01-13T22:39:30.676Z,8.50
2019-01-13T22:42:18.677Z,8.50
2019-01-13T22:44:47.711Z,8.50
2019-01-13T22:47:35.756Z,8.50
2019-01-13T22:50:06.566Z,8.40
2019-01-13T22:52:47.735Z,8.40
2019-01-13T22:55:28.886Z,8.40
2019-01-13T22:58:09.478Z,8.30
2019-01-13T23:03:58.052Z,8.40
2019-01-13T23:06:26.916Z,8.40
2019-01-13T23:09:15.250Z,8.40
2019-01-13T23:11:55.945Z,8.40
2019-01-13T23:14:25.053Z,8.50
2019-01-13T23:16:53.973Z,8.50
2019-01-13T23:19:42.093Z,8.50
2019-01-13T23:22:30.093Z,8.60
2019-01-13T23:25:11.521Z,8.60
2019-01-13T23:27:52.526Z,8.60
2019-01-13T23:30:33.428Z,8.50
2019-01-13T23:33:12.519Z,8.50
2019-01-13T23:35:53.809Z,8.60
2019-01-13T23:38:34.219Z,8.50
2019-01-13T23:41:15.021Z,8.50
2019-01-13T23:43:56.380Z,8.40
2019-01-13T23:46:37.631Z,8.40
2019-01-13T23:49:18.922Z,8.40
2019-01-13T23:51:59.891Z,8.40
2019-01-13T23:54:28.709Z,8.30
2019-01-13T23:57:16.911Z,8.30
